Time;durP1;ratioP1;P1;durP2;ratioP2;P2;SDS_P1;SDS_P2;PMS_P1;PMS_P2;Temp;Humidity;BMP_temperature;BMP_pressure;BME280_temperature;BME280_humidity;BME280_pressure;Samples;Min_cycle;Max_cycle;Signal;HPM_P1;HPM_P2
2021/05/02 00:01:06;;;;;;;0.80;0.60;;;6.80;99.90;;;6.95;100.00;-20871.31;4996514;28;20183;-71
2021/05/02 00:03:35;;;;;;;0.70;0.60;;;6.80;99.90;;;6.91;100.00;-20870.22;4996627;28;20262;-71
2021/05/02 00:06:06;;;;;;;0.70;0.60;;;6.70;99.90;;;6.85;100.00;-20868.53;4996995;28;20184;-71
2021/05/02 00:08:34;;;;;;;0.70;0.60;;;6.60;99.90;;;6.80;100.00;-20867.16;5000463;28;20770;-71
2021/05/02 00:11:02;;;;;;;0.80;0.60;;;6.60;99.90;;;6.71;100.00;-20864.94;4979182;28;20235;-71
2021/05/02 00:13:29;;;;;;;0.70;0.60;;;6.60;99.90;;;6.72;100.00;-20865.22;4995485;28;20218;-71
2021/05/02 00:15:57;;;;;;;0.80;0.60;;;6.50;99.90;;;6.68;100.00;-20863.97;4997879;28;20203;-71
2021/05/02 00:18:26;;;;;;;0.70;0.68;;;6.50;99.90;;;6.64;100.00;-20863.00;4980093;28;20266;-69
2021/05/02 00:20:55;;;;;;;0.80;0.70;;;6.50;99.90;;;6.49;100.00;-20858.97;4996094;28;20210;-69
2021/05/02 00:23:23;;;;;;;1.00;0.90;;;6.40;99.90;;;6.48;100.00;-20858.69;4977224;28;20205;-68
2021/05/02 00:25:50;;;;;;;0.80;0.70;;;6.30;99.90;;;6.41;100.00;-20856.59;4988351;28;20188;-69
2021/05/02 00:28:18;;;;;;;0.70;0.60;;;6.30;99.90;;;6.38;100.00;-20855.91;4996628;28;20195;-69
2021/05/02 00:30:46;;;;;;;0.80;0.70;;;6.30;99.90;;;6.27;100.00;-20852.97;4979063;28;20257;-71
2021/05/02 00:33:13;;;;;;;0.80;0.70;;;6.10;99.90;;;6.14;100.00;-20849.38;4978248;28;20219;-69
2021/05/02 00:35:42;;;;;;;0.70;0.60;;;6.00;99.90;;;6.00;100.00;-20845.63;4996543;28;20222;-69
2021/05/02 00:38:10;;;;;;;0.80;0.60;;;5.90;99.90;;;5.94;100.00;-20843.81;4991569;28;20225;-70
2021/05/02 00:40:40;;;;;;;0.70;0.60;;;5.90;99.90;;;5.86;100.00;-20841.56;4998185;28;20186;-70
2021/05/02 00:43:10;;;;;;;1.15;1.08;;;5.80;99.90;;;5.79;100.00;-20839.91;4992433;28;20183;-70
2021/05/02 00:45:54;;;;;;;0.70;0.60;;;5.70;99.90;;;5.76;100.00;-20838.94;4996381;28;20636;-69
2021/05/02 00:48:28;;;;;;;0.70;0.60;;;5.70;99.90;;;5.76;100.00;-20839.06;4978024;28;20195;-70
2021/05/02 00:51:03;;;;;;;0.70;0.60;;;5.70;99.90;;;5.72;100.00;-20837.97;4995699;28;20180;-71
2021/05/02 00:53:44;;;;;;;0.70;0.70;;;5.70;99.90;;;5.61;100.00;-20834.91;5006820;28;20222;-69
2021/05/02 00:56:21;;;;;;;0.80;0.60;;;5.50;99.90;;;5.52;100.00;-20832.53;5015631;28;20623;-69
2021/05/02 00:59:03;;;;;;;0.80;0.70;;;5.50;99.90;;;5.38;100.00;-20828.63;4997083;28;20562;-70
2021/05/02 01:01:38;;;;;;;0.70;0.60;;;5.30;99.90;;;5.36;100.00;-20828.06;4995536;28;20671;-69
2021/05/02 01:04:08;;;;;;;0.70;0.63;;;5.40;99.90;;;5.39;100.00;-20828.78;4977504;28;21118;-69
2021/05/02 01:06:40;;;;;;;0.70;0.60;;;5.40;99.90;;;5.29;100.00;-20826.13;4994412;28;20184;-69
2021/05/02 01:09:09;;;;;;;1.23;1.13;;;5.20;99.90;;;5.38;100.00;-20828.63;4993763;28;20217;-70
2021/05/02 01:11:41;;;;;;;0.70;0.60;;;5.30;99.90;;;5.41;100.00;-20829.31;4995545;28;20187;-69
2021/05/02 01:14:12;;;;;;;0.70;0.60;;;5.30;99.90;;;5.36;100.00;-20827.94;4995325;28;20195;-69
2021/05/02 01:16:41;;;;;;;1.10;1.00;;;5.20;99.90;;;5.25;100.00;-20825.16;4995920;28;20176;-70
2021/05/02 01:19:11;;;;;;;0.80;0.77;;;5.10;99.90;;;5.33;100.00;-20827.38;5001399;28;20259;-69
2021/05/02 01:21:42;;;;;;;0.80;0.80;;;5.20;99.90;;;5.60;100.00;-20834.47;4994451;28;20667;-70
2021/05/02 01:24:11;;;;;;;0.70;0.60;;;5.40;99.90;;;5.69;100.00;-20836.97;4994235;28;20699;-69
2021/05/02 01:26:42;;;;;;;0.77;0.70;;;5.50;99.90;;;5.70;100.00;-20837.41;4994312;28;20588;-69
2021/05/02 01:29:10;;;;;;;0.80;0.70;;;5.50;99.90;;;5.65;100.00;-20836.00;4994581;28;20184;-69
2021/05/02 01:31:38;;;;;;;0.70;0.60;;;5.40;99.90;;;5.66;100.00;-20836.28;4998525;28;20557;-69
2021/05/02 01:34:07;;;;;;;0.75;0.70;;;5.40;99.90;;;5.71;100.00;-20837.69;4984295;28;20212;-69
2021/05/02 01:36:34;;;;;;;0.70;0.70;;;5.50;99.90;;;5.81;100.00;-20840.47;4989774;28;20206;-69
2021/05/02 01:39:05;;;;;;;0.80;0.70;;;5.50;99.90;;;5.76;100.00;-20839.06;5014443;28;20257;-69
2021/05/02 01:41:33;;;;;;;0.70;0.60;;;5.50;99.90;;;5.80;100.00;-20840.03;4997512;28;20175;-70
2021/05/02 01:44:01;;;;;;;0.70;0.60;;;5.50;99.90;;;5.66;100.00;-20836.28;5014681;28;20191;-69
2021/05/02 01:46:36;;;;;;;0.80;0.70;;;5.40;99.90;;;5.47;100.00;-20831.13;4996147;28;20188;-69
2021/05/02 01:49:04;;;;;;;0.70;0.60;;;5.30;99.90;;;5.48;100.00;-20831.28;4994222;28;20178;-69
2021/05/02 01:51:37;;;;;;;0.80;0.70;;;5.20;99.90;;;5.52;100.00;-20832.38;4994901;28;20192;-69
2021/05/02 01:54:05;;;;;;;0.70;0.60;;;5.30;99.90;;;5.64;100.00;-20835.72;4993997;28;20281;-69
2021/05/02 01:56:34;;;;;;;0.70;0.70;;;5.40;99.90;;;5.52;100.00;-20832.53;4978709;28;20192;-70
2021/05/02 01:59:04;;;;;;;1.10;0.90;;;5.30;99.90;;;5.63;100.00;-20835.31;4977532;28;20683;-70
2021/05/02 02:01:32;;;;;;;0.77;0.70;;;5.30;99.90;;;5.61;100.00;-20834.91;4993446;28;20209;-70
2021/05/02 02:04:04;;;;;;;0.70;0.70;;;5.30;99.90;;;5.60;100.00;-20834.63;4976487;28;20202;-70
2021/05/02 02:06:32;;;;;;;0.70;0.60;;;5.30;99.90;;;5.53;100.00;-20832.81;4993218;28;20190;-69
2021/05/02 02:09:04;;;;;;;0.80;0.70;;;5.30;99.90;;;5.55;100.00;-20833.38;4989209;28;20685;-69
2021/05/02 02:11:33;;;;;;;0.70;0.60;;;5.30;99.90;;;5.54;100.00;-20832.94;4980487;28;20271;-69
2021/05/02 02:14:00;;;;;;;0.70;0.70;;;5.30;99.90;;;5.62;100.00;-20835.16;4985062;28;20210;-69
2021/05/02 02:16:27;;;;;;;0.70;0.70;;;5.30;99.90;;;5.81;100.00;-20840.47;4976600;28;20716;-70
2021/05/02 02:18:55;;;;;;;0.70;0.60;;;5.40;99.90;;;6.01;100.00;-20845.75;4977191;28;20195;-69
2021/05/02 02:21:24;;;;;;;0.73;0.70;;;5.60;99.90;;;6.03;100.00;-20846.44;4976702;28;20199;-70
2021/05/02 02:23:58;;;;;;;0.70;0.60;;;5.60;99.90;;;6.05;100.00;-20846.88;4994876;28;20505;-69
2021/05/02 02:26:34;;;;;;;0.80;0.70;;;5.60;99.90;;;6.15;100.00;-20849.50;4993664;28;20178;-70
2021/05/02 02:29:06;;;;;;;0.85;0.85;;;5.70;99.90;;;6.29;100.00;-20853.53;4993807;28;20510;-69
2021/05/02 02:31:35;;;;;;;0.70;0.60;;;5.80;99.90;;;6.38;100.00;-20855.75;4994179;28;20219;-69
2021/05/02 02:34:05;;;;;;;0.70;0.60;;;5.80;99.90;;;6.47;100.00;-20858.25;4977018;28;20302;-69
2021/05/02 02:36:33;;;;;;;0.70;0.60;;;5.90;99.90;;;6.57;100.00;-20861.03;5005275;28;20596;-70
2021/05/02 02:39:01;;;;;;;0.70;0.60;;;5.90;99.90;;;6.71;100.00;-20864.94;4997170;28;20632;-69
2021/05/02 02:41:30;;;;;;;0.70;0.60;;;5.90;99.90;;;6.52;100.00;-20859.66;4994128;28;20187;-69
2021/05/02 02:43:59;;;;;;;0.70;0.70;;;5.90;99.90;;;6.62;100.00;-20862.44;4993818;28;20171;-69
2021/05/02 02:46:29;;;;;;;0.70;0.65;;;5.90;99.90;;;6.67;100.00;-20863.81;4994710;28;20757;-71
2021/05/02 02:48:59;;;;;;;0.70;0.60;;;5.90;99.90;;;6.57;100.00;-20861.03;4999364;28;20278;-70
2021/05/02 02:51:28;;;;;;;0.70;0.60;;;5.90;99.90;;;6.66;100.00;-20863.41;4993758;28;20187;-70
2021/05/02 02:53:59;;;;;;;0.70;0.60;;;6.00;99.90;;;6.55;100.00;-20860.47;4995250;28;20211;-70
2021/05/02 02:56:30;;;;;;;0.70;0.60;;;6.00;99.90;;;6.60;100.00;-20861.75;4993585;28;20250;-70
2021/05/02 02:59:01;;;;;;;0.70;0.60;;;6.00;99.90;;;6.65;100.00;-20863.25;4976674;28;20260;-69
2021/05/02 03:01:30;;;;;;;0.70;0.60;;;6.00;99.90;;;6.75;100.00;-20866.03;4993894;28;20183;-69
2021/05/02 03:04:01;;;;;;;0.70;0.60;;;6.00;99.90;;;6.73;100.00;-20865.50;5004527;28;20199;-68
2021/05/02 03:06:29;;;;;;;2.45;2.35;;;6.00;99.90;;;6.83;100.00;-20868.00;4994028;28;20171;-69
2021/05/02 03:08:57;;;;;;;0.70;0.60;;;6.00;99.90;;;6.82;100.00;-20867.72;4994064;28;20207;-72
2021/05/02 03:11:25;;;;;;;1.55;1.45;;;6.00;99.90;;;6.83;100.00;-20868.00;4974011;28;20235;-69
2021/05/02 03:13:53;;;;;;;0.70;0.60;;;6.00;99.90;;;6.91;100.00;-20870.34;4973138;28;20231;-69
2021/05/02 03:16:24;;;;;;;0.70;0.60;;;6.00;99.90;;;6.91;100.00;-20870.22;4990770;28;20187;-69
2021/05/02 03:19:00;;;;;;;0.70;0.60;;;6.00;99.90;;;6.86;100.00;-20868.81;5013522;28;20187;-69
2021/05/02 03:21:38;;;;;;;0.70;0.60;;;6.00;99.90;;;6.89;100.00;-20869.66;4997204;28;20179;-69
2021/05/02 03:24:08;;;;;;;0.70;0.60;;;6.10;99.90;;;6.98;100.00;-20872.28;4994552;28;20277;-69
2021/05/02 03:26:36;;;;;;;0.70;0.60;;;6.10;99.90;;;7.04;100.00;-20873.81;4998379;28;20211;-69
2021/05/02 03:29:04;;;;;;;0.70;0.60;;;6.10;99.90;;;6.86;100.00;-20868.81;5008804;28;20237;-71
2021/05/02 03:31:33;;;;;;;0.70;0.50;;;6.10;99.90;;;6.88;100.00;-20869.53;4989971;28;20648;-69
2021/05/02 03:34:05;;;;;;;0.75;0.70;;;6.10;99.90;;;6.93;100.00;-20870.78;4979943;28;20691;-71
2021/05/02 03:36:38;;;;;;;0.70;0.60;;;6.10;99.90;;;6.93;100.00;-20870.91;4996832;28;20188;-70
2021/05/02 03:39:05;;;;;;;0.70;0.60;;;6.10;99.90;;;6.99;100.00;-20872.56;4996507;28;20266;-70
2021/05/02 03:41:34;;;;;;;0.70;0.68;;;6.10;99.90;;;6.77;100.00;-20866.59;4995658;28;20664;-69
2021/05/02 03:44:01;;;;;;;0.70;0.60;;;6.10;99.90;;;6.72;100.00;-20865.22;4997224;28;20284;-69
2021/05/02 03:46:28;;;;;;;0.70;0.60;;;6.10;99.90;;;7.06;100.00;-20874.25;4997309;28;20194;-69
2021/05/02 03:48:58;;;;;;;0.70;0.60;;;6.10;99.90;;;7.04;100.00;-20873.81;4997088;28;20200;-69
2021/05/02 03:51:28;;;;;;;0.70;0.60;;;6.10;99.90;;;6.93;100.00;-20870.78;4979763;28;20200;-69
2021/05/02 03:53:57;;;;;;;0.70;0.60;;;6.10;99.90;;;7.04;100.00;-20873.81;5015131;28;20697;-70
2021/05/02 03:56:37;;;;;;;0.70;0.60;;;6.10;99.90;;;7.06;100.00;-20874.38;4998426;28;20191;-69
2021/05/02 03:59:08;;;;;;;0.70;0.60;;;6.20;99.90;;;7.05;100.00;-20874.09;5015473;28;20535;-70
2021/05/02 04:01:35;;;;;;;0.70;0.60;;;6.10;99.90;;;7.12;100.00;-20876.06;4995883;28;20183;-69
2021/05/02 04:04:03;;;;;;;0.70;0.60;;;6.10;99.90;;;7.04;100.00;-20873.81;4997034;28;20215;-69
2021/05/02 04:06:31;;;;;;;0.70;0.60;;;6.10;99.90;;;7.05;100.00;-20874.09;5004085;28;20188;-69
2021/05/02 04:09:04;;;;;;;0.70;0.60;;;6.10;99.90;;;7.11;100.00;-20875.78;4989621;28;20238;-70
2021/05/02 04:11:31;;;;;;;0.70;0.60;;;6.20;99.90;;;7.08;100.00;-20874.94;4978539;28;20186;-70
2021/05/02 04:14:01;;;;;;;0.70;0.60;;;6.20;99.90;;;6.86;100.00;-20868.97;4978886;28;20239;-68
2021/05/02 04:16:28;;;;;;;0.70;0.68;;;6.20;99.90;;;7.13;100.00;-20876.31;4996547;28;21286;-70
2021/05/02 04:18:56;;;;;;;1.08;0.98;;;6.20;99.90;;;6.97;100.00;-20872.03;4996796;28;20194;-69
2021/05/02 04:21:23;;;;;;;0.70;0.60;;;6.20;99.90;;;7.06;100.00;-20874.25;4995382;28;20660;-69
2021/05/02 04:23:51;;;;;;;0.70;0.60;;;6.20;99.90;;;7.15;100.00;-20876.88;5013710;28;20212;-69
2021/05/02 04:26:19;;;;;;;0.70;0.60;;;6.20;99.90;;;7.08;100.00;-20874.81;5012013;28;20195;-71
2021/05/02 04:28:46;;;;;;;0.70;0.60;;;6.20;99.90;;;7.06;100.00;-20874.38;4995893;28;20192;-69
2021/05/02 04:31:14;;;;;;;0.70;0.60;;;6.20;99.90;;;6.92;100.00;-20870.50;4995385;28;20197;-69
2021/05/02 04:33:41;;;;;;;0.70;0.60;;;6.20;99.90;;;7.09;100.00;-20875.22;4978815;28;20320;-69
2021/05/02 04:36:08;;;;;;;0.80;0.70;;;6.20;99.90;;;7.02;100.00;-20873.28;4978004;28;20490;-69
2021/05/02 04:38:35;;;;;;;0.70;0.50;;;6.20;99.90;;;6.95;100.00;-20871.31;5014364;28;20247;-70
2021/05/02 04:41:03;;;;;;;0.70;0.60;;;6.20;99.90;;;6.87;100.00;-20869.09;5015890;28;20197;-69
2021/05/02 04:43:31;;;;;;;0.70;0.60;;;6.20;99.90;;;6.94;100.00;-20871.06;5003131;28;20188;-69
2021/05/02 04:45:58;;;;;;;0.70;0.57;;;6.20;99.90;;;7.18;100.00;-20877.56;5002906;28;20179;-69
2021/05/02 04:48:26;;;;;;;0.70;0.60;;;6.20;99.90;;;7.19;100.00;-20878.00;5002587;28;20186;-69
2021/05/02 04:50:53;;;;;;;0.70;0.70;;;6.30;99.90;;;7.26;100.00;-20879.94;4995258;28;20208;-69
2021/05/02 04:53:21;;;;;;;0.70;0.60;;;6.30;99.90;;;7.29;100.00;-20880.63;4995436;28;20298;-69
2021/05/02 04:55:47;;;;;;;0.70;0.60;;;6.40;99.90;;;7.32;100.00;-20881.31;4997003;28;20596;-69
2021/05/02 04:58:15;;;;;;;0.70;0.60;;;6.40;99.90;;;7.40;100.00;-20883.53;4995998;28;20242;-69
2021/05/02 05:00:42;;;;;;;0.70;0.60;;;6.40;99.90;;;7.28;100.00;-20880.22;4996744;28;20196;-69
2021/05/02 05:03:10;;;;;;;0.70;0.50;;;6.40;99.90;;;7.28;100.00;-20880.22;4993448;28;20196;-69
2021/05/02 05:05:37;;;;;;;0.70;0.60;;;6.40;99.90;;;7.39;100.00;-20883.28;4978579;28;20291;-69
2021/05/02 05:08:06;;;;;;;0.70;0.60;;;6.40;99.90;;;7.31;100.00;-20881.19;4993886;28;20310;-69
2021/05/02 05:10:32;;;;;;;0.70;0.60;;;6.50;99.90;;;7.46;100.00;-20885.22;4995415;28;20182;-69
2021/05/02 05:12:59;;;;;;;0.70;0.60;;;6.50;99.90;;;7.51;100.00;-20886.59;4994326;28;20324;-69
2021/05/02 05:15:28;;;;;;;0.70;0.60;;;6.40;99.90;;;7.32;100.00;-20881.47;4995514;28;20194;-69
2021/05/02 05:17:54;;;;;;;0.70;0.60;;;6.50;99.90;;;7.31;100.00;-20881.06;4999855;28;20441;-68
2021/05/02 05:20:22;;;;;;;0.70;0.60;;;6.50;99.90;;;7.42;100.00;-20884.09;4994256;28;20450;-69
2021/05/02 05:22:49;;;;;;;0.70;0.60;;;6.50;99.90;;;7.55;100.00;-20887.56;5002860;28;20798;-69
2021/05/02 05:25:16;;;;;;;0.70;0.60;;;6.60;99.90;;;7.62;100.00;-20889.66;5013822;28;20428;-70
2021/05/02 05:27:43;;;;;;;0.70;0.60;;;6.70;99.90;;;7.55;100.00;-20887.56;5014861;28;20196;-70
2021/05/02 05:30:12;;;;;;;0.70;0.60;;;6.70;99.90;;;7.64;100.00;-20890.06;5015110;28;20236;-71
2021/05/02 05:32:40;;;;;;;0.70;0.60;;;6.70;99.90;;;7.70;100.00;-20891.88;4994450;28;20443;-70
2021/05/02 05:35:09;;;;;;;0.70;0.60;;;6.70;99.90;;;7.70;100.00;-20891.75;4965909;28;20198;-69
2021/05/02 05:37:37;;;;;;;0.70;0.60;;;6.80;99.90;;;7.93;100.00;-20897.97;4995136;28;20279;-69
2021/05/02 05:40:07;;;;;;;0.70;0.60;;;6.80;99.90;;;8.08;100.00;-20902.16;4978029;28;20214;-71
2021/05/02 05:42:34;;;;;;;0.70;0.60;;;6.90;99.90;;;8.09;100.00;-20902.28;4995406;28;20435;-69
2021/05/02 05:45:01;;;;;;;0.70;0.60;;;7.00;99.90;;;8.20;100.00;-20905.47;5001041;28;20430;-69
2021/05/02 05:47:28;;;;;;;0.70;0.60;;;6.90;99.90;;;8.36;100.00;-20909.63;5014378;28;20975;-69
2021/05/02 05:49:56;;;;;;;0.70;0.70;;;6.90;99.90;;;8.30;100.00;-20907.97;4996662;28;20476;-69
2021/05/02 05:52:24;;;;;;;0.70;0.60;;;6.90;99.90;;;8.33;100.00;-20908.81;4993318;28;20934;-72
2021/05/02 05:54:51;;;;;;;0.70;0.60;;;6.90;99.90;;;8.14;100.00;-20903.69;4979511;28;20478;-70
2021/05/02 05:57:18;;;;;;;0.70;0.60;;;6.90;99.90;;;8.16;100.00;-20904.22;4994655;28;20474;-70
2021/05/02 05:59:45;;;;;;;0.70;0.60;;;6.80;99.90;;;8.04;100.00;-20901.03;5014391;28;20446;-71
2021/05/02 06:02:12;;;;;;;0.70;0.60;;;6.90;99.90;;;8.18;100.00;-20904.91;4991173;28;20448;-69
2021/05/02 06:04:39;;;;;;;0.70;0.60;;;6.90;99.90;;;8.15;100.00;-20903.94;5014473;28;20426;-70
2021/05/02 06:07:07;;;;;;;0.70;0.60;;;6.90;99.90;;;8.03;100.00;-20900.75;5009110;28;20451;-70
2021/05/02 06:09:35;;;;;;;0.70;0.50;;;6.90;99.90;;;8.09;100.00;-20902.41;4994406;28;20477;-69
2021/05/02 06:12:03;;;;;;;0.70;0.60;;;6.80;99.90;;;8.03;100.00;-20900.75;4982058;28;20486;-69
2021/05/02 06:14:30;;;;;;;0.70;0.60;;;6.80;99.90;;;7.99;100.00;-20899.66;4976906;28;20553;-69
2021/05/02 06:16:57;;;;;;;0.70;0.60;;;6.70;99.90;;;7.80;100.00;-20894.38;5008340;28;20442;-72
2021/05/02 06:19:27;;;;;;;0.70;0.60;;;6.70;99.90;;;7.90;100.00;-20897.16;4996766;28;20800;-69
2021/05/02 06:21:54;;;;;;;0.70;0.60;;;6.80;99.90;;;7.83;100.00;-20895.22;4992977;28;20441;-70
2021/05/02 06:24:21;;;;;;;0.70;0.60;;;6.80;99.90;;;7.81;100.00;-20894.78;4994262;28;20256;-70
2021/05/02 06:26:50;;;;;;;0.70;0.60;;;6.70;99.90;;;7.87;100.00;-20896.31;4995393;28;20201;-72
2021/05/02 06:29:17;;;;;;;0.80;0.60;;;6.70;99.90;;;7.84;100.00;-20895.47;4977167;28;20199;-69
2021/05/02 06:31:44;;;;;;;0.70;0.60;;;6.70;99.90;;;7.84;100.00;-20895.63;4998617;28;20202;-68
2021/05/02 06:34:12;;;;;;;0.70;0.60;;;6.70;99.90;;;7.71;100.00;-20892.16;4988191;28;20211;-67
2021/05/02 06:36:41;;;;;;;0.70;0.60;;;6.70;99.90;;;7.77;100.00;-20893.53;4977274;28;20211;-71
2021/05/02 06:39:08;;;;;;;0.70;0.60;;;6.70;99.90;;;7.85;100.00;-20895.75;5007399;28;20232;-70
2021/05/02 06:41:39;;;;;;;0.70;0.60;;;6.80;99.90;;;7.90;100.00;-20897.28;4976256;28;20450;-70
2021/05/02 06:44:06;;;;;;;0.70;0.50;;;6.80;99.90;;;8.05;100.00;-20901.19;5005830;28;20184;-70
2021/05/02 06:46:34;;;;;;;0.70;0.60;;;6.90;99.90;;;8.03;100.00;-20900.75;4994895;28;20523;-70
2021/05/02 06:49:04;;;;;;;0.70;0.60;;;6.90;99.90;;;8.15;100.00;-20904.09;4994314;28;20430;-68
2021/05/02 06:51:32;;;;;;;0.70;0.60;;;7.00;99.90;;;8.29;100.00;-20907.84;4993668;28;20582;-70
2021/05/02 06:54:00;;;;;;;0.70;0.60;;;7.00;99.90;;;8.34;100.00;-20909.09;4993732;28;20811;-70
2021/05/02 06:56:27;;;;;;;0.70;0.60;;;7.00;99.90;;;8.49;100.00;-20913.25;4993094;28;20461;-68
2021/05/02 06:58:56;;;;;;;0.70;0.60;;;7.10;99.90;;;8.73;100.00;-20919.63;4993532;28;20496;-69
2021/05/02 07:01:25;;;;;;;0.70;0.60;;;7.30;99.90;;;8.73;100.00;-20919.63;4993343;28;20427;-71
2021/05/02 07:03:52;;;;;;;0.70;0.60;;;7.40;99.90;;;9.11;100.00;-20930.03;4957162;28;20450;-69
2021/05/02 07:06:32;;;;;;;0.70;0.60;;;7.50;99.90;;;9.46;100.00;-20939.56;4992756;28;20430;-69
2021/05/02 07:08:59;;;;;;;1.33;1.23;;;7.80;99.90;;;9.86;100.00;-20950.38;4993727;28;20482;-69
2021/05/02 07:11:28;;;;;;;0.70;0.60;;;8.10;99.90;;;9.95;100.00;-20952.75;4991625;28;20474;-71
2021/05/02 07:13:59;;;;;;;0.70;0.60;;;8.10;99.90;;;10.24;100.00;-20960.75;4984991;28;20843;-72
2021/05/02 07:16:27;;;;;;;0.70;0.60;;;8.30;99.90;;;10.23;100.00;-20960.34;4978628;28;20449;-71
2021/05/02 07:18:54;;;;;;;0.70;0.60;;;8.30;99.90;;;10.34;100.00;-20963.41;4986401;28;20451;-70
2021/05/02 07:21:21;;;;;;;0.70;0.60;;;8.40;99.90;;;10.42;100.00;-20965.63;4994466;28;20838;-72
2021/05/02 07:23:51;;;;;;;0.70;0.60;;;8.40;99.90;;;10.38;100.00;-20964.50;4995084;28;20463;-72
2021/05/02 07:26:20;;;;;;;0.70;0.60;;;8.30;99.90;;;10.05;100.00;-20955.66;4980936;28;20760;-70
2021/05/02 07:28:48;;;;;;;0.70;0.60;;;8.40;99.90;;;10.39;100.00;-20964.78;4959798;28;20493;-71
2021/05/02 07:31:18;;;;;;;0.70;0.60;;;8.60;99.90;;;10.60;100.00;-20970.59;4993698;28;20426;-71
2021/05/02 07:33:47;;;;;;;0.70;0.60;;;8.60;99.90;;;10.57;100.00;-20969.75;5002286;28;20480;-71
2021/05/02 07:36:14;;;;;;;0.70;0.60;;;8.60;99.90;;;11.13;100.00;-20984.97;4993431;28;20787;-71
2021/05/02 07:38:42;;;;;;;0.80;0.70;;;9.00;99.90;;;11.73;100.00;-21001.13;5005221;28;20540;-71
2021/05/02 07:41:10;;;;;;;0.80;0.70;;;9.20;99.90;;;11.37;100.00;-20991.47;4993205;28;20437;-70
2021/05/02 07:43:39;;;;;;;0.70;0.60;;;9.10;99.90;;;11.09;100.00;-20983.88;4993341;28;20414;-72
2021/05/02 07:46:07;;;;;;;0.70;0.60;;;8.70;99.90;;;10.96;100.00;-20980.28;4976376;28;20496;-70
2021/05/02 07:48:36;;;;;;;0.70;0.60;;;8.70;99.90;;;10.75;100.00;-20974.59;4991998;28;20537;-71
2021/05/02 07:51:04;;;;;;;0.70;0.60;;;8.60;99.90;;;11.01;100.00;-20981.50;4992309;28;20465;-71
2021/05/02 07:53:31;;;;;;;0.70;0.57;;;8.80;99.90;;;11.06;100.00;-20983.03;4993456;28;20465;-71
2021/05/02 07:55:59;;;;;;;0.70;0.63;;;9.00;99.90;;;11.68;100.00;-20999.75;4995904;28;20453;-71
2021/05/02 07:58:25;;;;;;;0.77;0.70;;;9.60;99.90;;;12.33;100.00;-21017.44;5002715;28;20419;-73
2021/05/02 08:00:53;;;;;;;0.70;0.60;;;10.00;99.20;;;12.57;100.00;-21023.78;5012840;28;20484;-71
2021/05/02 08:03:20;;;;;;;0.70;0.60;;;9.90;97.50;;;11.79;100.00;-21002.66;4995061;28;20435;-71
2021/05/02 08:05:49;;;;;;;0.70;0.60;;;9.30;96.40;;;12.04;100.00;-21009.56;4998325;28;20535;-71
2021/05/02 08:08:16;;;;;;;0.70;0.60;;;9.40;96.20;;;12.08;100.00;-21010.69;5012482;28;20439;-70
2021/05/02 08:10:43;;;;;;;0.70;0.70;;;9.50;94.90;;;12.28;100.00;-21015.91;5000852;28;20446;-70
2021/05/02 08:13:17;;;;;;;0.70;0.60;;;9.40;93.70;;;11.67;100.00;-20999.47;4994780;28;20513;-70
2021/05/02 08:15:45;;;;;;;0.70;0.60;;;9.20;94.60;;;11.50;100.00;-20994.78;4996474;28;20442;-70
2021/05/02 08:18:12;;;;;;;0.77;0.70;;;9.20;94.80;;;11.27;100.00;-20988.56;4996402;28;20476;-70
2021/05/02 08:20:39;;;;;;;0.80;0.80;;;8.90;95.40;;;10.91;100.00;-20978.88;4981565;28;20444;-69
2021/05/02 08:23:08;;;;;;;0.70;0.60;;;8.80;95.90;;;10.73;100.00;-20973.91;4996691;28;20479;-70
2021/05/02 08:25:36;;;;;;;0.70;0.60;;;8.80;96.00;;;10.40;100.00;-20965.06;5008967;28;20438;-70
2021/05/02 08:28:04;;;;;;;0.70;0.60;;;8.50;96.60;;;10.19;100.00;-20959.25;5009779;28;20964;-69
2021/05/02 08:30:31;;;;;;;0.70;0.50;;;8.50;97.10;;;10.12;100.00;-20957.56;4996051;28;20946;-70
2021/05/02 08:32:59;;;;;;;0.70;0.60;;;8.60;97.20;;;10.14;100.00;-20958.13;4986103;28;20447;-69
2021/05/02 08:35:27;;;;;;;0.70;0.60;;;8.80;97.20;;;10.66;100.00;-20971.97;4988470;28;20438;-70
2021/05/02 08:37:55;;;;;;;0.70;0.60;;;8.90;95.50;;;11.04;100.00;-20982.47;4997769;28;20490;-69
2021/05/02 08:40:25;;;;;;;0.70;0.60;;;9.10;94.90;;;11.33;100.00;-20990.22;4996446;28;20419;-69
2021/05/02 08:42:52;;;;;;;0.70;0.60;;;9.20;94.70;;;11.53;100.00;-20995.63;4978768;28;20502;-69
2021/05/02 08:45:21;;;;;;;0.70;0.60;;;9.40;92.60;;;12.30;100.00;-21016.47;4996194;28;20445;-69
2021/05/02 08:47:52;;;;;;;0.80;0.70;;;9.90;90.40;;;12.44;100.00;-21020.34;4994419;28;20787;-69
2021/05/02 08:50:20;;;;;;;0.80;0.70;;;9.90;86.40;;;12.01;100.00;-21008.75;4988055;28;20449;-70
2021/05/02 08:52:47;;;;;;;0.70;0.60;;;9.70;86.10;;;11.60;100.00;-20997.69;4998152;28;20450;-70
2021/05/02 08:55:15;;;;;;;0.70;0.60;;;9.60;87.90;;;11.35;100.00;-20990.91;4996415;28;20462;-70
2021/05/02 08:57:43;;;;;;;0.70;0.63;;;9.40;89.30;;;11.32;100.00;-20990.09;4996084;28;20492;-70
2021/05/02 09:00:11;;;;;;;0.70;0.60;;;9.20;90.40;;;11.27;100.00;-20988.72;5011192;28;20463;-72
2021/05/02 09:02:54;;;;;;;0.70;0.60;;;9.20;91.20;;;11.37;100.00;-20991.31;5003034;28;20528;-71
2021/05/02 09:05:23;;;;;;;0.80;0.70;;;9.40;90.20;;;11.81;100.00;-21003.34;4996736;28;20475;-72
2021/05/02 09:07:53;;;;;;;0.73;0.70;;;10.10;90.80;;;14.32;100.00;-21071.06;5002827;28;20557;-70
2021/05/02 09:10:21;;;;;;;0.77;0.67;;;11.40;80.80;;;13.68;100.00;-21053.84;5010730;28;20552;-72
2021/05/02 09:13:01;;;;;;;0.77;0.70;;;10.80;75.50;;;12.83;100.00;-21030.81;4983281;28;20438;-69
2021/05/02 09:15:30;;;;;;;0.77;0.60;;;10.10;76.10;;;11.66;100.00;-20999.06;4982537;28;20453;-71
2021/05/02 09:18:18;;;;;;;0.70;0.60;;;9.60;75.20;;;11.40;100.00;-20992.03;4997758;28;20952;-71
2021/05/02 09:20:54;;;;;;;0.70;0.60;;;9.30;77.60;;;10.89;100.00;-20978.47;5005481;28;20896;-70
2021/05/02 09:23:21;;;;;;;0.70;0.60;;;9.30;79.80;;;11.01;100.00;-20981.66;4994929;28;20469;-70
2021/05/02 09:25:52;;;;;;;0.70;0.60;;;9.20;80.70;;;11.59;100.00;-20997.41;4996470;28;20529;-69
2021/05/02 09:28:42;;;;;;;0.70;0.70;;;9.60;79.60;;;13.33;100.00;-21044.34;4995451;28;20418;-70
2021/05/02 09:31:13;;;;;;;0.80;0.70;;;11.10;74.80;;;13.79;100.00;-21056.75;4994279;28;20449;-70
2021/05/02 09:33:40;;;;;;;0.80;0.70;;;11.20;67.90;;;13.30;100.00;-21043.50;4994497;28;20464;-69
2021/05/02 09:36:09;;;;;;;0.70;0.60;;;10.80;69.30;;;12.95;100.00;-21034.13;5002102;28;20433;-73
2021/05/02 09:38:37;;;;;;;0.70;0.70;;;10.20;69.90;;;12.13;100.00;-21011.78;5014463;28;20516;-70
2021/05/02 09:41:05;;;;;;;0.70;0.60;;;9.90;73.20;;;12.01;100.00;-21008.75;4973641;28;20431;-70
2021/05/02 09:43:43;;;;;;;0.70;0.70;;;9.70;73.80;;;12.04;100.00;-21009.56;4978777;28;20803;-70
2021/05/02 09:49:15;;;;;;;0.70;0.70;;;10.20;73.00;;;13.97;100.00;-21061.69;4994690;28;20415;-69
2021/05/02 09:51:48;;;;;;;0.70;0.60;;;11.30;70.90;;;14.77;100.00;-21083.19;4995391;28;20532;-70
2021/05/02 09:54:18;;;;;;;0.70;0.60;;;11.70;61.10;;;14.76;100.00;-21082.78;4998714;28;20482;-69
2021/05/02 09:56:48;;;;;;;0.70;0.60;;;11.80;61.90;;;15.55;100.00;-21104.09;4993167;28;20463;-70
2021/05/02 09:59:23;;;;;;;0.70;0.60;;;12.00;57.90;;;15.40;100.00;-21100.25;4993666;28;20439;-70
2021/05/02 10:02:25;;;;;;;0.70;0.60;;;12.40;56.00;;;14.72;100.00;-21081.81;4994632;28;20538;-70
2021/05/02 10:04:56;;;;;;;0.70;0.60;;;12.00;52.90;;;14.40;100.00;-21073.28;4994743;28;20420;-70
2021/05/02 10:07:26;;;;;;;0.70;0.70;;;11.40;54.00;;;14.64;100.00;-21079.59;4994204;28;20442;-70
2021/05/02 10:09:57;;;;;;;0.70;0.60;;;11.30;55.90;;;14.23;100.00;-21068.59;4976729;28;20942;-70
2021/05/02 10:12:24;;;;;;;0.70;0.60;;;11.60;55.80;;;14.57;100.00;-21077.69;4993232;28;20957;-70
2021/05/02 10:14:54;;;;;;;0.70;0.70;;;11.30;51.00;;;13.75;100.00;-21055.63;4977609;28;20815;-69
2021/05/02 10:17:22;;;;;;;0.80;0.70;;;11.10;50.90;;;14.47;100.00;-21075.19;4977014;28;20426;-70
2021/05/02 10:19:49;;;;;;;0.70;0.60;;;11.50;48.00;;;16.17;100.00;-21120.84;4977635;28;20443;-70
2021/05/02 10:22:18;;;;;;;0.70;0.60;;;12.60;45.50;;;16.37;100.00;-21126.34;4996002;28;20437;-71
2021/05/02 10:24:46;;;;;;;0.80;0.70;;;12.60;42.60;;;16.03;100.00;-21117.00;4979142;28;20446;-70
2021/05/02 10:27:17;;;;;;;0.80;0.70;;;12.00;43.20;;;15.35;100.00;-21098.72;4994719;28;20477;-71